Bookmark and Share
Track history (hours):
 

Royal Melbourne

More information available from US FCC via Universal Licensing System and Coast Guard Vessel Documentation Center.

Last reported at 2014-Feb-14 15:17 UTC. Time now 2014-Apr-16 13:43 UTC.
Position N 38°06' W 122°16'.
Warning: this ship's position is months out of date.

Length 30 m; draft 2 m.

Type: Tug. MMSI: 366998830.

NotesDate/timePositionNaut miles runAvg speedWind from/ knotsBaromVisibWave heightAir tempDewpointWater temp
2014-Feb-14 15:17N 38°06' W 122°16'7 4.0
2014-Feb-14 13:33N 38°02' W 122°23'7 6.7
2014-Feb-14 12:33N 37°55' W 122°25'8 7.8
2014-Feb-14 11:33N 37°48' W 122°21'3 0.3
2014-Feb-14 02:23N 37°48' W 122°17'0 0.0
2014-Feb-14 01:32N 37°48' W 122°17'0 0.0
2014-Feb-14 00:26N 37°48' W 122°17'0 0.0
2014-Feb-13 23:32N 37°48' W 122°17'0 0.0
2014-Feb-13 22:32N 37°48' W 122°17'0 0.0
2014-Feb-13 21:32N 37°48' W 122°17'0 0.0
2014-Feb-13 20:32N 37°48' W 122°17'0 0.0
2014-Feb-13 19:32N 37°48' W 122°17'0 0.0
2014-Feb-13 18:32N 37°48' W 122°17'0 0.0
2014-Feb-13 17:32N 37°48' W 122°17'0 0.0
2014-Feb-13 16:32N 37°48' W 122°17'0 0.0
2014-Feb-13 15:31N 37°48' W 122°17'0 0.0
2014-Feb-13 14:31N 37°48' W 122°17'0 0.0
2014-Feb-13 13:31N 37°48' W 122°17'0 0.0
2014-Feb-13 12:31N 37°48' W 122°17'0 0.0
2014-Feb-13 11:31N 37°48' W 122°17'0 0.0
2014-Feb-13 10:31N 37°48' W 122°17'0 0.0
2014-Feb-13 09:31N 37°48' W 122°17'0 0.0
2014-Feb-13 08:31N 37°48' W 122°17'0 0.0
2014-Feb-13 07:31N 37°48' W 122°17'0 0.0
2014-Feb-13 06:28N 37°48' W 122°17'0 0.0
2014-Feb-13 05:31N 37°48' W 122°17'0 0.0
2014-Feb-13 04:31N 37°48' W 122°17'0 0.0
2014-Feb-13 03:31N 37°48' W 122°17'0 0.0
2014-Feb-13 02:31N 37°48' W 122°17'0 0.0
2014-Feb-13 01:31N 37°48' W 122°17'0 0.0
2014-Feb-13 00:31N 37°48' W 122°17'0 0.0
2014-Feb-12 23:31N 37°48' W 122°17'0 0.0
2014-Feb-12 22:31N 37°48' W 122°17'0 0.0
2014-Feb-12 21:33N 37°48' W 122°17'0 0.0
2014-Feb-12 20:33N 37°48' W 122°17'0 0.0
2014-Feb-12 19:33N 37°48' W 122°17'0 0.0
2014-Feb-12 18:33N 37°48' W 122°17'0 0.0
2014-Feb-12 17:33N 37°48' W 122°17'0 0.0
2014-Feb-12 16:33N 37°48' W 122°17'0 0.0
2014-Feb-12 15:15N 37°48' W 122°17'0 0.0
2014-Feb-12 14:33N 37°48' W 122°17'0 0.0
2014-Feb-12 13:27N 37°48' W 122°17'0 0.0
2014-Feb-12 12:09N 37°48' W 122°17'0 0.0
2014-Feb-12 11:33N 37°48' W 122°17'0 0.0
2014-Feb-12 10:08N 37°48' W 122°17'0 0.0
2014-Feb-12 08:32N 37°48' W 122°17'0 0.0
2014-Feb-12 07:32N 37°48' W 122°17'0 0.0
2014-Feb-12 06:32N 37°48' W 122°17'0 0.0
2014-Feb-12 05:32N 37°48' W 122°17'0 0.0
2014-Feb-12 04:32N 37°48' W 122°17'0 0.0
2014-Feb-12 02:08N 37°48' W 122°17'0 0.0
2014-Feb-11 22:32N 37°48' W 122°17'0 0.0
2014-Feb-11 21:32N 37°48' W 122°17'0 0.0
2014-Feb-11 19:26N 37°48' W 122°17'0 0.0
2014-Feb-11 17:26N 37°48' W 122°17'0 0.0
2014-Feb-11 16:32N 37°48' W 122°17'0 0.0
2014-Feb-11 15:32N 37°48' W 122°17'0 0.0
2014-Feb-11 14:32N 37°48' W 122°17'0 0.0
2014-Feb-11 13:32N 37°48' W 122°17'0 0.0
2014-Feb-11 12:32N 37°48' W 122°17'0 0.0
2014-Feb-11 11:32N 37°48' W 122°17'0 0.0
2014-Feb-11 10:32N 37°48' W 122°17'0 0.0
2014-Feb-11 09:32N 37°48' W 122°17'0 0.0
2014-Feb-11 08:32N 37°48' W 122°17'0 0.0
2014-Feb-11 07:32N 37°48' W 122°17'0 0.0
2014-Feb-11 06:29N 37°48' W 122°17'0 0.0
2014-Feb-11 05:32N 37°48' W 122°17'0 0.0
2014-Feb-11 04:32N 37°48' W 122°17'0 0.0
2014-Feb-11 03:32N 37°48' W 122°17'3 2.8
2014-Feb-11 02:33N 37°48' W 122°20'6 6.2
2014-Feb-11 01:33N 37°54' W 122°22'1 0.8
2014-Feb-11 00:33N 37°55' W 122°22'0 0.0
2014-Feb-10 13:33N 37°55' W 122°22'3 2.7
2014-Feb-10 12:33N 37°55' W 122°25'8 7.6
2014-Feb-10 11:28N 38°03' W 122°20'9 0.3
2014-Feb-09 03:32N 38°02' W 122°09'7 7.1
2014-Feb-09 02:32N 38°03' W 122°18'9 8.0
2014-Feb-09 01:26N 37°57' W 122°26'7 8.3
2014-Feb-09 00:33N 37°50' W 122°23'5 5.1
2014-Feb-08 23:31N 37°45' W 122°21'0 0.0
2014-Feb-08 22:31N 37°45' W 122°21'0 0.0
2014-Feb-08 21:33N 37°45' W 122°21'3 3.0
2014-Feb-08 20:33N 37°48' W 122°19'1 1.4
2014-Feb-08 19:28N 37°48' W 122°17'0 0.0
2014-Feb-08 18:31N 37°48' W 122°17'0 0.0
2014-Feb-08 17:31N 37°48' W 122°17'0 0.0
2014-Feb-08 16:31N 37°48' W 122°17'0 0.0
2014-Feb-08 15:31N 37°48' W 122°17'0 0.0
2014-Feb-08 14:31N 37°48' W 122°17'0 0.0
2014-Feb-08 13:31N 37°48' W 122°17'0 0.0
2014-Feb-08 12:31N 37°48' W 122°17'0 0.0
2014-Feb-08 11:28N 37°48' W 122°17'0 0.0
2014-Feb-08 10:28N 37°48' W 122°17'0 0.0
2014-Feb-08 09:31N 37°48' W 122°17'0 0.0
2014-Feb-08 08:34N 37°48' W 122°17'0 0.0
2014-Feb-08 07:31N 37°48' W 122°17'0 0.0
2014-Feb-08 05:33N 37°48' W 122°17'0 0.0
2014-Feb-08 04:33N 37°48' W 122°17'0 0.0
2014-Feb-08 03:33N 37°48' W 122°17'0 0.0
2014-Feb-08 02:33N 37°48' W 122°17'0 0.0
2014-Feb-08 01:33N 37°48' W 122°17'0 0.0
2014-Feb-08 00:33N 37°48' W 122°17'0 0.0
2014-Feb-07 23:30N 37°48' W 122°17'0 0.0
2014-Feb-07 22:33N 37°48' W 122°17'0 0.0
2014-Feb-07 21:33N 37°48' W 122°17'0 0.0
2014-Feb-07 20:33N 37°48' W 122°17'0 0.1
2014-Feb-07 19:32N 37°48' W 122°17'0 0.0
2014-Feb-07 18:31N 37°48' W 122°17'0 0.0
2014-Feb-07 17:31N 37°48' W 122°17'0 0.0
2014-Feb-07 16:32N 37°48' W 122°17'0 0.0
2014-Feb-07 15:29N 37°48' W 122°17'0 0.0
2014-Feb-07 14:32N 37°48' W 122°17'0 0.0
2014-Feb-07 13:29N 37°48' W 122°17'2 1.6
2014-Feb-07 12:34N 37°48' W 122°19'0 0.0
2014-Feb-07 11:28N 37°48' W 122°19'0 0.0
2014-Feb-07 10:31N 37°48' W 122°19'0 0.0
2014-Feb-07 09:31N 37°48' W 122°19'0 0.1
2014-Feb-07 08:31N 37°48' W 122°19'0 0.0
2014-Feb-07 07:31N 37°48' W 122°19'2 1.6
2014-Feb-07 06:33N 37°48' W 122°17'0 0.0
2014-Feb-07 05:33N 37°48' W 122°17'0 0.0
2014-Feb-07 04:33N 37°48' W 122°17'0 0.0
2014-Feb-07 03:33N 37°48' W 122°17'0 0.0
2014-Feb-07 02:33N 37°48' W 122°17'0 0.0
2014-Feb-07 01:33N 37°48' W 122°17'0 0.0
2014-Feb-07 00:33N 37°48' W 122°17'0 0.0
2014-Feb-06 23:33N 37°48' W 122°17'0 0.1
2014-Feb-06 22:33N 37°48' W 122°17'4 3.6
2014-Feb-06 21:34N 37°45' W 122°21'0 0.1
2014-Feb-06 20:31N 37°45' W 122°21'0 0.2
2014-Feb-06 19:31N 37°46' W 122°21'0 0.0
2014-Feb-06 18:31N 37°46' W 122°21'0 0.0
2014-Feb-06 17:31N 37°46' W 122°21'0 0.0
2014-Feb-06 16:31N 37°46' W 122°21'0 0.1
2014-Feb-06 15:33N 37°46' W 122°21'5 5.3
2014-Feb-06 14:33N 37°51' W 122°23'5 4.6
2014-Feb-06 13:34N 37°55' W 122°22'1 0.1
2014-Feb-05 23:33N 37°54' W 122°22'5 4.7
2014-Feb-05 22:33N 37°50' W 122°22'4 3.9
2014-Feb-05 21:31N 37°48' W 122°17'0 0.1
2014-Feb-05 20:32N 37°48' W 122°17'0 0.0
2014-Feb-05 19:32N 37°48' W 122°17'0 0.1
2014-Feb-05 18:33N 37°48' W 122°17'0 0.0
2014-Feb-05 17:33N 37°48' W 122°17'0 0.0
2014-Feb-05 16:33N 37°48' W 122°17'0 0.0
2014-Feb-05 15:33N 37°48' W 122°17'0 0.0
2014-Feb-05 14:33N 37°48' W 122°17'0 0.0
2014-Feb-05 13:33N 37°48' W 122°17'0 0.0
2014-Feb-05 12:33N 37°48' W 122°17'0 0.0
2014-Feb-05 11:33N 37°48' W 122°17'0 0.0
2014-Feb-05 10:33N 37°48' W 122°17'0 0.0
2014-Feb-05 09:33N 37°48' W 122°17'0 0.0
2014-Feb-05 08:33N 37°48' W 122°17'2 1.6
2014-Feb-05 07:33N 37°48' W 122°19'0 0.3
2014-Feb-05 06:31N 37°48' W 122°19'0 0.0
2014-Feb-05 05:31N 37°48' W 122°19'0 0.0
2014-Feb-05 04:31N 37°48' W 122°19'0 0.0
2014-Feb-05 03:31N 37°48' W 122°19'0 0.0
2014-Feb-05 02:31N 37°48' W 122°19'0 0.0
2014-Feb-05 01:31N 37°48' W 122°19'2 1.9
2014-Feb-05 00:33N 37°48' W 122°17'0 0.0
2014-Feb-04 23:32N 37°48' W 122°17'0 0.0
2014-Feb-04 22:32N 37°48' W 122°17'0 0.0
2014-Feb-04 21:32N 37°48' W 122°17'0 0.1
2014-Feb-04 20:33N 37°48' W 122°17'4 3.6
2014-Feb-04 19:33N 37°46' W 122°21'0 0.0
2014-Feb-04 18:31N 37°46' W 122°21'0 0.2
2014-Feb-04 17:31N 37°46' W 122°21'1 1.1
2014-Feb-04 16:31N 37°45' W 122°21'0 0.0
2014-Feb-04 15:31N 37°45' W 122°21'  

Dump ship's entire track history

sailing weather and tide predictions

Royal Melbourne — WDC2865 — position and weather